Time;durP1;ratioP1;P1;durP2;ratioP2;P2;SDS_P1;SDS_P2;PMS_P1;PMS_P2;Temp;Humidity;BMP_temperature;BMP_pressure;BME280_temperature;BME280_humidity;BME280_pressure;Samples;Min_cycle;Max_cycle;Signal;HPM_P1;HPM_P2
2023/10/02 00:01:58;;;;;;;25.48;12.70;;;16.00;99.90;;;;;;4938192;29;20035;-94
2023/10/02 00:04:34;;;;;;;24.00;12.50;;;16.00;99.90;;;;;;4936986;29;20043;-94
2023/10/02 00:07:22;;;;;;;22.05;12.30;;;16.00;99.90;;;;;;4938143;29;20070;-93
2023/10/02 00:09:49;;;;;;;25.60;12.95;;;16.00;99.90;;;;;;4960463;23;20072;-95
2023/10/02 00:12:21;;;;;;;26.13;12.88;;;16.10;99.90;;;;;;4922406;29;20055;-94
2023/10/02 00:14:48;;;;;;;23.77;12.00;;;16.00;99.90;;;;;;4940537;23;20400;-94
2023/10/02 00:17:26;;;;;;;24.88;12.82;;;16.60;99.90;;;;;;4944068;29;20039;-94
2023/10/02 00:19:59;;;;;;;25.40;12.50;;;16.00;99.90;;;;;;4960305;28;20130;-94
2023/10/02 00:22:42;;;;;;;24.15;11.90;;;16.10;99.90;;;;;;4961359;28;20049;-94
2023/10/02 00:25:22;;;;;;;24.58;11.27;;;16.10;99.90;;;;;;4938204;23;20103;-94
2023/10/02 00:27:51;;;;;;;25.95;12.40;;;16.60;99.90;;;;;;4957595;23;20056;-94
2023/10/02 00:30:43;;;;;;;24.55;11.38;;;16.10;99.90;;;;;;4903517;29;20130;-94
2023/10/02 00:33:11;;;;;;;25.95;12.43;;;16.00;99.90;;;;;;4908093;29;20052;-94
2023/10/02 00:36:07;;;;;;;25.67;12.18;;;16.00;99.90;;;;;;4933172;29;20055;-94
2023/10/02 00:38:36;;;;;;;25.27;12.75;;;16.00;99.90;;;;;;4923786;29;20051;-94
2023/10/02 00:41:03;;;;;;;25.45;11.68;;;16.00;99.90;;;;;;4922008;29;20090;-95
2023/10/02 00:43:45;;;;;;;26.00;12.48;;;15.90;99.90;;;;;;4921638;29;20054;-94
2023/10/02 00:46:23;;;;;;;23.25;12.13;;;16.00;99.90;;;;;;4921856;29;20099;-95
2023/10/02 00:48:50;;;;;;;23.27;11.85;;;15.90;99.90;;;;;;4921292;29;20047;-95
2023/10/02 00:51:27;;;;;;;24.70;12.23;;;16.60;99.90;;;;;;4921508;29;20496;-94
2023/10/02 00:54:23;;;;;;;24.45;12.23;;;16.00;99.90;;;;;;4921647;29;20075;-94
2023/10/02 00:57:16;;;;;;;24.02;12.40;;;16.00;99.90;;;;;;4921546;29;20147;-93
2023/10/02 00:59:45;;;;;;;25.70;12.32;;;16.00;99.90;;;;;;4921693;29;20056;-94
2023/10/02 01:02:18;;;;;;;24.42;11.95;;;16.10;99.90;;;;;;4920706;29;20436;-94
2023/10/02 01:04:56;;;;;;;24.13;11.87;;;16.10;99.90;;;;;;4921464;29;20058;-94
2023/10/02 01:07:28;;;;;;;21.35;11.90;;;16.30;99.90;;;;;;4917798;29;20040;-94
2023/10/02 01:10:07;;;;;;;23.02;11.77;;;16.30;99.90;;;;;;4951272;29;20058;-94
2023/10/02 01:12:40;;;;;;;22.15;11.75;;;16.10;99.90;;;;;;4934018;29;20484;-95
2023/10/02 01:15:09;;;;;;;;;;;16.20;99.90;;;;;;4922543;29;20134;-94
2023/10/02 01:17:45;;;;;;;25.13;12.07;;;16.30;99.90;;;;;;4921152;29;20009;-94
2023/10/02 01:20:39;;;;;;;24.70;12.80;;;16.30;99.90;;;;;;4935754;29;20051;-93
2023/10/02 01:23:23;;;;;;;;;;;16.30;99.90;;;;;;4940864;29;20117;-95
2023/10/02 01:25:57;;;;;;;26.75;12.70;;;16.30;99.90;;;;;;4940341;29;19929;-94
2023/10/02 01:28:51;;;;;;;26.67;12.27;;;16.30;99.90;;;;;;4934151;29;20060;-95
2023/10/02 01:31:35;;;;;;;22.65;12.02;;;16.20;99.90;;;;;;4920506;29;20059;-93
2023/10/02 01:34:02;;;;;;;25.02;13.20;;;16.20;99.90;;;;;;4927043;29;20039;-95
2023/10/02 01:36:35;;;;;;;23.45;12.35;;;16.10;99.90;;;;;;4939482;29;20055;-94
2023/10/02 01:39:10;;;;;;;24.67;12.23;;;16.10;99.90;;;;;;4932614;29;20101;-94
2023/10/02 01:41:57;;;;;;;24.92;12.27;;;16.00;99.90;;;;;;4937703;29;20125;-94
2023/10/02 01:44:29;;;;;;;24.30;12.07;;;16.00;99.90;;;;;;4938419;29;20138;-95
2023/10/02 01:47:08;;;;;;;25.65;12.23;;;16.20;99.90;;;;;;4941769;29;20554;-95
2023/10/02 01:49:43;;;;;;;24.50;12.05;;;15.80;99.90;;;;;;4940041;29;20110;-94
2023/10/02 01:52:19;;;;;;;26.65;12.50;;;15.80;99.90;;;;;;4939857;29;20517;-95
2023/10/02 01:54:51;;;;;;;26.98;12.82;;;15.70;99.90;;;;;;4945575;29;20070;-94
2023/10/02 01:57:29;;;;;;;;;;;16.20;99.90;;;;;;4937948;29;20055;-94
2023/10/02 02:00:13;;;;;;;27.95;12.02;;;15.50;99.90;;;;;;4927525;29;20362;-94
2023/10/02 02:02:41;;;;;;;26.77;12.32;;;15.50;99.90;;;;;;4905421;29;20086;-93
2023/10/02 02:05:18;;;;;;;26.35;12.23;;;15.50;99.90;;;;;;4931559;29;20050;-93
2023/10/02 02:07:46;;;;;;;25.55;12.18;;;15.40;99.90;;;;;;4952506;29;20039;-94
2023/10/02 02:10:13;;;;;;;27.13;12.48;;;15.40;99.90;;;;;;4964279;28;20058;-93
2023/10/02 02:12:44;;;;;;;25.05;12.13;;;15.40;99.90;;;;;;4964518;28;20027;-94
2023/10/02 02:15:29;;;;;;;25.08;12.43;;;15.40;99.90;;;;;;4964556;28;20058;-93
2023/10/02 02:17:54;;;;;;;25.88;12.20;;;15.40;99.90;;;;;;4946901;29;20047;-94
2023/10/02 02:20:43;;;;;;;22.67;11.40;;;15.40;99.90;;;;;;4939084;29;20047;-93
2023/10/02 02:23:14;;;;;;;24.67;12.07;;;16.00;99.90;;;;;;4938956;29;20119;-94
2023/10/02 02:25:41;;;;;;;25.95;12.50;;;15.40;99.90;;;;;;4938745;29;20051;-93
2023/10/02 02:28:20;;;;;;;26.00;12.35;;;15.40;99.90;;;;;;4938315;29;20146;-94
2023/10/02 02:30:47;;;;;;;26.85;12.43;;;15.40;99.90;;;;;;4939144;29;20159;-95
2023/10/02 02:33:38;;;;;;;26.52;12.05;;;16.10;99.90;;;;;;4938781;29;20043;-94
2023/10/02 02:36:05;;;;;;;28.63;12.35;;;16.00;99.90;;;;;;4939268;29;20057;-94
2023/10/02 02:38:48;;;;;;;28.55;13.05;;;15.40;99.90;;;;;;4952282;29;20052;-93
2023/10/02 02:41:18;;;;;;;28.25;12.85;;;15.40;99.90;;;;;;4918886;29;20047;-93
2023/10/02 02:44:01;;;;;;;24.55;12.05;;;15.60;99.90;;;;;;4919534;29;20051;-94
2023/10/02 02:46:29;;;;;;;26.13;12.57;;;15.30;99.90;;;;;;4938399;29;20043;-94
2023/10/02 02:48:56;;;;;;;27.27;13.40;;;15.90;99.90;;;;;;4929946;23;20207;-94
2023/10/02 02:51:48;;;;;;;27.05;13.05;;;15.50;99.90;;;;;;4938217;29;20051;-95
2023/10/02 02:54:15;;;;;;;26.77;12.98;;;15.30;99.90;;;;;;4942032;28;20501;-95
2023/10/02 02:57:00;;;;;;;26.48;13.23;;;16.20;99.90;;;;;;4946212;28;20069;-94
2023/10/02 02:59:46;;;;;;;28.08;12.88;;;15.30;99.90;;;;;;4957484;28;20410;-95
2023/10/02 03:02:21;;;;;;;26.10;13.65;;;15.40;99.90;;;;;;4957104;28;20047;-94
2023/10/02 03:05:04;;;;;;;26.38;13.57;;;15.30;99.90;;;;;;4956677;28;20133;-94
2023/10/02 03:07:44;;;;;;;26.67;13.35;;;15.30;99.90;;;;;;4957923;28;20048;-94
2023/10/02 03:10:11;;;;;;;26.60;13.77;;;15.20;99.90;;;;;;4946337;29;20051;-94
2023/10/02 03:12:44;;;;;;;28.23;13.98;;;15.20;99.90;;;;;;4938233;29;20041;-94
2023/10/02 03:15:45;;;;;;;28.95;14.77;;;16.00;99.90;;;;;;4938841;29;20122;-95
2023/10/02 03:18:23;;;;;;;27.80;13.35;;;16.20;99.90;;;;;;4938372;29;20092;-94
2023/10/02 03:23:42;;;;;;;27.92;14.02;;;15.00;99.90;;;;;;4957142;28;20149;-94
2023/10/02 03:29:21;;;;;;;27.38;13.73;;;14.70;99.90;;;;;;4938231;29;20055;-94
2023/10/02 03:31:57;;;;;;;28.95;14.00;;;14.90;99.90;;;;;;4918921;29;20403;-94
2023/10/02 03:34:48;;;;;;;30.10;13.90;;;15.20;99.90;;;;;;4921729;28;20058;-94
2023/10/02 03:37:15;;;;;;;28.90;14.02;;;14.80;99.90;;;;;;4953052;29;20043;-93
2023/10/02 03:39:59;;;;;;;30.35;13.80;;;15.70;99.90;;;;;;4942663;29;20518;-94
2023/10/02 03:42:30;;;;;;;27.42;14.00;;;14.80;99.90;;;;;;4939819;29;20125;-93
2023/10/02 03:44:57;;;;;;;29.63;13.98;;;14.80;99.90;;;;;;4948745;28;20053;-94
2023/10/02 03:47:35;;;;;;;27.85;13.85;;;14.80;99.90;;;;;;4964367;28;20046;-94
2023/10/02 03:50:02;;;;;;;30.02;14.70;;;14.80;99.90;;;;;;4965686;28;20115;-93
2023/10/02 03:52:37;;;;;;;27.58;13.85;;;14.80;99.90;;;;;;4963003;28;20393;-94
2023/10/02 03:55:26;;;;;;;29.48;15.23;;;15.40;99.90;;;;;;4954481;29;20047;-93
2023/10/02 03:58:04;;;;;;;30.08;14.80;;;14.70;99.90;;;;;;4941092;29;20051;-94
2023/10/02 04:00:42;;;;;;;31.40;14.20;;;14.70;99.90;;;;;;4940158;29;20039;-94
2023/10/02 04:03:11;;;;;;;30.67;15.27;;;14.70;99.90;;;;;;4925064;29;20138;-94
2023/10/02 04:05:55;;;;;;;27.10;14.13;;;14.80;99.90;;;;;;4972641;28;20047;-94
2023/10/02 04:08:36;;;;;;;;;;;14.60;99.90;;;;;;4941039;29;20043;-94
2023/10/02 04:11:05;;;;;;;27.73;13.68;;;14.60;99.90;;;;;;4955376;28;20029;-94
2023/10/02 04:13:45;;;;;;;28.27;14.20;;;14.60;99.90;;;;;;4959983;28;20051;-94
2023/10/02 04:16:29;;;;;;;29.27;14.70;;;14.60;99.90;;;;;;4945841;29;20043;-94
2023/10/02 04:19:02;;;;;;;;;;;14.60;99.90;;;;;;4941382;29;20051;-93
2023/10/02 04:21:39;;;;;;;31.38;14.73;;;14.60;99.90;;;;;;4957502;28;19926;-94
2023/10/02 04:24:09;;;;;;;28.92;14.25;;;14.50;99.90;;;;;;4960332;28;20050;-93
2023/10/02 04:26:53;;;;;;;27.90;15.10;;;14.50;99.90;;;;;;4958503;28;20090;-94
2023/10/02 04:29:37;;;;;;;29.10;14.80;;;14.60;99.90;;;;;;4959525;28;20043;-93
2023/10/02 04:32:15;;;;;;;27.45;14.60;;;14.50;99.90;;;;;;4941244;29;20039;-93
2023/10/02 04:34:50;;;;;;;30.60;15.13;;;14.50;99.90;;;;;;4957220;28;20103;-94
2023/10/02 04:37:19;;;;;;;30.00;14.48;;;14.50;99.90;;;;;;4941398;29;20056;-94
2023/10/02 04:42:25;;;;;;;30.60;14.63;;;14.60;99.90;;;;;;4953583;23;20450;-93
2023/10/02 04:44:56;;;;;;;30.77;15.15;;;14.80;99.90;;;;;;4942321;28;21347;-94
2023/10/02 04:47:26;;;;;;;27.60;13.77;;;14.60;99.90;;;;;;4941093;29;20085;-93
2023/10/02 04:52:55;;;;;;;27.48;14.48;;;14.70;99.90;;;;;;4941639;29;20043;-94
2023/10/02 04:55:42;;;;;;;27.10;14.00;;;14.70;99.90;;;;;;4946838;28;20062;-94
2023/10/02 04:58:19;;;;;;;29.98;14.73;;;15.20;99.90;;;;;;4976600;28;20054;-94
2023/10/02 05:03:49;;;;;;;27.15;13.07;;;14.80;99.90;;;;;;4959935;28;20055;-94
2023/10/02 05:09:25;;;;;;;27.38;12.82;;;14.80;99.90;;;;;;5000252;28;20034;-94
2023/10/02 05:12:22;;;;;;;30.23;13.88;;;14.70;99.90;;;;;;4984339;28;20053;-94
2023/10/02 05:14:55;;;;;;;29.80;13.35;;;14.60;99.90;;;;;;4972350;28;20053;-94
2023/10/02 05:17:41;;;;;;;28.10;13.35;;;14.60;99.90;;;;;;4940910;29;20495;-94
2023/10/02 05:20:13;;;;;;;29.13;13.73;;;15.40;99.90;;;;;;4940828;28;20086;-94
2023/10/02 05:22:58;;;;;;;28.95;13.18;;;14.60;99.90;;;;;;4939946;29;20051;-94
2023/10/02 05:25:37;;;;;;;26.48;13.50;;;15.60;99.90;;;;;;4943150;29;20490;-94
2023/10/02 05:28:10;;;;;;;27.50;13.15;;;15.30;99.90;;;;;;4941919;29;20098;-94
2023/10/02 05:30:43;;;;;;;28.45;13.30;;;14.70;99.90;;;;;;4943296;29;20043;-94
2023/10/02 05:33:16;;;;;;;29.05;12.88;;;15.40;99.90;;;;;;4947970;29;20043;-94
2023/10/02 05:35:55;;;;;;;28.85;13.73;;;14.50;99.90;;;;;;4947612;28;20104;-93
2023/10/02 05:38:38;;;;;;;29.08;13.57;;;14.40;99.90;;;;;;4959430;28;20058;-92
2023/10/02 05:41:12;;;;;;;26.40;12.90;;;14.40;99.90;;;;;;4945594;29;20059;-94
2023/10/02 05:44:23;;;;;;;30.55;13.80;;;15.20;99.90;;;;;;4925361;23;20059;-93
2023/10/02 05:46:55;;;;;;;27.05;13.13;;;14.40;99.90;;;;;;4921064;29;20069;-94
2023/10/02 05:49:24;;;;;;;29.90;13.55;;;14.40;99.90;;;;;;4920880;29;20479;-93
2023/10/02 05:51:55;;;;;;;29.45;13.65;;;14.40;99.90;;;;;;4920423;29;20147;-94
2023/10/02 05:54:26;;;;;;;30.73;14.05;;;14.40;99.90;;;;;;4920744;29;20039;-94
2023/10/02 05:57:08;;;;;;;26.33;12.80;;;14.90;99.90;;;;;;4920660;29;20116;-93
2023/10/02 05:59:54;;;;;;;29.90;13.23;;;14.50;99.90;;;;;;4904664;29;20051;-94
2023/10/02 06:02:24;;;;;;;30.63;13.15;;;15.20;99.90;;;;;;4920212;29;20055;-93
2023/10/02 06:05:11;;;;;;;29.65;13.75;;;15.40;99.90;;;;;;4919680;29;20051;-96
2023/10/02 06:07:51;;;;;;;26.85;13.23;;;14.50;99.90;;;;;;4902770;29;20052;-96
2023/10/02 06:10:26;;;;;;;34.40;13.75;;;14.50;99.90;;;;;;4926306;29;20063;-88
2023/10/02 06:13:05;;;;;;;28.58;12.63;;;14.60;99.90;;;;;;4943440;28;20542;-87
2023/10/02 06:15:43;;;;;;;28.70;12.70;;;14.60;99.90;;;;;;4919219;29;20035;-93
2023/10/02 06:18:09;;;;;;;27.38;11.93;;;15.00;99.90;;;;;;4919895;29;20044;-91
2023/10/02 06:20:34;;;;;;;28.20;13.82;;;14.70;99.90;;;;;;4918584;29;20411;-90
2023/10/02 06:23:19;;;;;;;33.83;13.43;;;15.80;99.90;;;;;;4919501;29;20492;-90
2023/10/02 06:25:46;;;;;;;26.65;12.23;;;14.80;99.90;;;;;;4918646;29;20131;-90
2023/10/02 06:28:25;;;;;;;26.38;12.77;;;14.80;99.90;;;;;;4919258;29;20058;-90
2023/10/02 06:30:51;;;;;;;30.13;12.93;;;15.40;99.90;;;;;;4919359;29;20055;-89
2023/10/02 06:33:21;;;;;;;26.50;12.13;;;15.00;99.90;;;;;;4918022;29;20063;-88
2023/10/02 06:36:00;;;;;;;25.50;11.98;;;15.10;99.90;;;;;;4918842;29;20043;-87
2023/10/02 06:38:30;;;;;;;26.70;12.60;;;15.10;99.90;;;;;;4919103;29;20052;-87
2023/10/02 06:40:56;;;;;;;27.20;12.23;;;15.40;99.90;;;;;;4918458;29;20127;-87
2023/10/02 06:43:30;;;;;;;27.88;12.52;;;15.30;99.90;;;;;;4917990;29;20495;-87
2023/10/02 06:49:15;;;;;;;28.65;11.77;;;15.70;99.90;;;;;;4899689;29;19927;-87
2023/10/02 06:51:41;;;;;;;28.33;11.82;;;15.50;99.90;;;;;;4910126;29;20094;-87
2023/10/02 06:54:15;;;;;;;24.73;11.63;;;15.60;99.90;;;;;;4918253;29;20058;-87
2023/10/02 06:57:11;;;;;;;23.83;10.95;;;15.60;99.90;;;;;;4918848;29;20079;-87
2023/10/02 06:59:52;;;;;;;29.30;12.02;;;15.40;99.90;;;;;;4920238;29;20048;-87
2023/10/02 07:05:33;;;;;;;27.58;11.85;;;16.00;99.90;;;;;;4937104;29;20052;-87
2023/10/02 07:08:22;;;;;;;25.52;11.93;;;16.90;99.90;;;;;;4934323;29;20048;-87
2023/10/02 07:10:48;;;;;;;24.27;11.60;;;16.10;99.90;;;;;;4918535;29;20071;-88
2023/10/02 07:13:33;;;;;;;23.80;12.23;;;16.20;99.90;;;;;;4915011;29;20413;-90
2023/10/02 07:16:06;;;;;;;24.27;11.75;;;16.50;99.90;;;;;;4903573;29;20059;-88
2023/10/02 07:18:49;;;;;;;26.25;11.88;;;16.30;99.90;;;;;;4921219;29;20058;-88
2023/10/02 07:21:30;;;;;;;26.55;12.65;;;16.40;99.90;;;;;;4916025;29;20060;-88
2023/10/02 07:24:27;;;;;;;25.58;11.65;;;16.40;99.90;;;;;;4925975;29;20095;-88
2023/10/02 07:26:53;;;;;;;24.05;11.70;;;17.00;99.90;;;;;;4912806;29;20044;-87
2023/10/02 07:29:37;;;;;;;27.65;12.20;;;17.40;99.90;;;;;;4912547;29;20780;-89
2023/10/02 07:32:36;;;;;;;24.77;12.10;;;16.70;99.90;;;;;;4919253;29;20488;-89
2023/10/02 07:38:18;;;;;;;26.50;11.40;;;16.70;99.90;;;;;;4898023;29;20053;-88
2023/10/02 07:40:52;;;;;;;27.60;12.93;;;16.70;99.90;;;;;;4879054;29;20060;-88
2023/10/02 07:43:19;;;;;;;24.75;11.30;;;17.20;99.90;;;;;;4878409;29;20094;-88
2023/10/02 07:46:15;;;;;;;25.38;12.18;;;17.50;99.90;;;;;;4907297;29;20048;-88
2023/10/02 07:48:41;;;;;;;25.45;12.05;;;16.70;99.90;;;;;;4917980;29;20047;-88
2023/10/02 07:51:09;;;;;;;25.88;12.10;;;17.30;99.90;;;;;;4916972;29;20066;-87
2023/10/02 07:53:51;;;;;;;24.35;11.77;;;16.90;99.90;;;;;;4917968;29;20047;-87
2023/10/02 07:56:19;;;;;;;26.95;12.65;;;17.10;99.90;;;;;;4917460;29;20047;-87
2023/10/02 07:58:55;;;;;;;27.20;12.52;;;17.20;99.90;;;;;;4917369;29;20411;-87
2023/10/02 08:01:27;;;;;;;25.40;12.48;;;17.90;99.90;;;;;;4906215;23;20044;-88
2023/10/02 08:03:56;;;;;;;25.92;12.32;;;17.30;99.90;;;;;;4945274;29;20062;-87
2023/10/02 08:06:33;;;;;;;25.20;12.18;;;17.40;99.90;;;;;;4959464;28;20035;-87
2023/10/02 08:11:54;;;;;;;25.65;12.25;;;17.40;99.90;;;;;;4956109;29;20388;-87
2023/10/02 08:14:41;;;;;;;25.23;11.80;;;17.50;99.90;;;;;;4936797;29;20043;-88
2023/10/02 08:17:27;;;;;;;26.60;11.73;;;17.50;99.90;;;;;;4934770;29;20142;-87
2023/10/02 08:19:54;;;;;;;28.38;12.52;;;17.50;99.90;;;;;;4951562;29;20043;-86
2023/10/02 08:22:35;;;;;;;25.15;11.98;;;17.50;99.90;;;;;;4936242;29;20087;-87
2023/10/02 08:25:03;;;;;;;24.40;12.63;;;17.50;99.90;;;;;;4936853;29;20134;-86
2023/10/02 08:27:32;;;;;;;26.85;12.00;;;17.60;99.90;;;;;;4936520;29;20259;-87
2023/10/02 08:30:00;;;;;;;27.52;12.85;;;17.60;99.90;;;;;;4957639;29;20051;-89
2023/10/02 08:32:32;;;;;;;30.60;13.38;;;17.60;99.90;;;;;;4939849;29;20446;-88
2023/10/02 08:34:58;;;;;;;31.58;12.80;;;17.60;99.90;;;;;;4940433;29;20554;-87
2023/10/02 08:37:25;;;;;;;27.08;13.05;;;17.70;99.90;;;;;;4940336;29;20130;-87
2023/10/02 08:40:04;;;;;;;27.45;12.68;;;17.70;99.90;;;;;;4937875;29;20055;-89
2023/10/02 08:42:29;;;;;;;26.95;12.52;;;17.70;99.90;;;;;;4940039;29;20090;-87
2023/10/02 08:45:00;;;;;;;27.65;12.95;;;18.10;99.90;;;;;;4940385;29;20043;-89
2023/10/02 08:47:35;;;;;;;26.85;13.27;;;17.80;99.90;;;;;;4938462;29;20127;-87
2023/10/02 08:50:20;;;;;;;30.08;13.40;;;17.90;99.90;;;;;;4940205;29;20074;-87
2023/10/02 08:52:50;;;;;;;28.27;13.52;;;18.10;99.90;;;;;;4940412;29;20043;-88
2023/10/02 08:55:33;;;;;;;26.67;12.73;;;18.20;99.90;;;;;;4929657;29;20093;-90
2023/10/02 08:58:15;;;;;;;28.90;13.23;;;18.30;99.90;;;;;;4940999;29;20043;-91
2023/10/02 09:06:43;;;;;;;25.60;13.40;;;18.50;99.90;;;;;;4942115;29;20138;-90
2023/10/02 09:09:16;;;;;;;25.77;13.10;;;18.60;99.90;;;;;;4941036;29;20531;-91
2023/10/02 09:12:03;;;;;;;27.02;13.65;;;18.60;99.90;;;;;;4942590;29;20043;-88
2023/10/02 09:17:24;;;;;;;25.15;12.15;;;18.80;99.90;;;;;;4956589;29;20047;-87
2023/10/02 09:20:09;;;;;;;26.38;13.23;;;18.90;99.90;;;;;;4939729;29;20051;-87
2023/10/02 09:22:38;;;;;;;28.48;13.07;;;18.90;99.90;;;;;;4956490;29;20051;-87
2023/10/02 09:25:23;;;;;;;28.90;13.75;;;19.00;99.90;;;;;;4972074;28;20047;-87
2023/10/02 09:28:00;;;;;;;28.08;13.20;;;19.10;99.90;;;;;;4920498;29;20079;-87
2023/10/02 09:33:09;;;;;;;27.77;13.30;;;19.40;99.90;;;;;;4952739;29;20067;-88
2023/10/02 09:38:06;;;;;;;28.98;14.25;;;19.30;99.90;;;;;;4920885;29;20051;-88
2023/10/02 09:43:36;;;;;;;25.90;13.60;;;19.30;99.90;;;;;;4919153;29;20451;-88
2023/10/02 09:46:21;;;;;;;26.23;14.02;;;19.50;99.90;;;;;;4920824;29;20046;-88
2023/10/02 09:49:01;;;;;;;29.05;13.77;;;19.60;99.90;;;;;;4920259;29;20436;-87
2023/10/02 09:52:12;;;;;;;26.40;13.88;;;19.80;99.90;;;;;;4936507;29;20047;-88
2023/10/02 09:55:23;;;;;;;26.23;13.50;;;19.80;99.90;;;;;;4920101;29;20075;-87
2023/10/02 09:57:52;;;;;;;25.52;13.68;;;20.00;99.90;;;;;;4927223;23;20063;-88
2023/10/02 10:03:52;;;;;;;26.23;14.02;;;20.20;99.90;;;;;;4900122;29;20174;-87
2023/10/02 10:06:28;;;;;;;29.65;14.50;;;20.30;99.90;;;;;;4900800;29;20519;-87
2023/10/02 10:14:42;;;;;;;29.63;14.68;;;20.20;99.90;;;;;;4901780;29;20100;-87
2023/10/02 10:17:17;;;;;;;27.27;14.55;;;20.30;99.90;;;;;;4900651;29;20106;-88
2023/10/02 10:20:18;;;;;;;28.58;14.65;;;20.40;99.90;;;;;;4900396;29;20495;-88
2023/10/02 10:22:51;;;;;;;29.98;15.32;;;20.30;99.90;;;;;;4901526;29;20052;-88
2023/10/02 10:27:57;;;;;;;31.35;15.88;;;20.40;99.90;;;;;;4922993;23;20044;-88
2023/10/02 10:30:34;;;;;;;32.03;15.68;;;20.30;99.90;;;;;;4934953;29;20125;-89
2023/10/02 10:35:48;;;;;;;28.85;15.75;;;20.50;99.90;;;;;;4938430;29;20060;-88
2023/10/02 10:38:49;;;;;;;29.52;15.65;;;20.60;99.90;;;;;;4938044;29;20491;-88
2023/10/02 10:41:57;;;;;;;30.50;16.33;;;20.80;99.90;;;;;;4939164;29;20094;-88
2023/10/02 10:44:44;;;;;;;28.67;15.75;;;20.80;99.90;;;;;;4938236;29;20050;-88
2023/10/02 10:47:46;;;;;;;27.45;15.50;;;20.80;99.90;;;;;;4937335;29;20063;-88
2023/10/02 10:50:29;;;;;;;30.13;14.88;;;20.80;99.90;;;;;;4938064;29;20039;-88
2023/10/02 10:53:26;;;;;;;27.88;14.13;;;21.10;99.90;;;;;;4925654;23;20075;-88
2023/10/02 10:55:47;;;;;;;28.08;15.00;;;21.20;99.90;;;;;;4950285;28;20052;-88
2023/10/02 10:58:26;;;;;;;28.08;15.15;;;21.20;99.90;;;;;;4950917;28;20050;-88
2023/10/02 11:01:20;;;;;;;27.73;14.40;;;21.20;99.90;;;;;;4917868;29;20056;-88
2023/10/02 11:04:04;;;;;;;25.45;14.02;;;21.10;99.90;;;;;;4964941;29;20099;-88
2023/10/02 11:06:41;;;;;;;27.38;14.70;;;21.00;99.90;;;;;;4968435;29;20047;-88
2023/10/02 11:09:16;;;;;;;28.98;15.20;;;21.10;99.90;;;;;;4923261;29;20055;-85
2023/10/02 11:11:49;;;;;;;29.88;15.30;;;21.20;99.90;;;;;;4954617;29;20054;-85
2023/10/02 11:14:34;;;;;;;;;;;21.30;99.90;;;;;;4919684;29;20497;-86
2023/10/02 11:17:32;;;;;;;28.30;14.95;;;21.30;99.90;;;;;;4904612;29;19929;-86
2023/10/02 11:20:38;;;;;;;24.55;13.75;;;21.40;99.90;;;;;;4918719;29;20055;-88
2023/10/02 11:23:03;;;;;;;28.15;14.65;;;21.30;99.90;;;;;;4918590;29;20055;-88
2023/10/02 11:25:29;;;;;;;29.20;14.90;;;21.60;99.90;;;;;;4918786;29;20555;-88
2023/10/02 11:28:49;;;;;;;24.50;13.43;;;21.90;99.90;;;;;;4935345;29;20056;-88
2023/10/02 11:34:11;;;;;;;28.55;13.50;;;22.30;99.90;;;;;;4913303;29;20064;-88
2023/10/02 11:36:55;;;;;;;25.83;14.15;;;22.30;99.90;;;;;;4917230;29;20086;-88
2023/10/02 11:39:20;;;;;;;24.17;12.55;;;22.20;99.90;;;;;;4900074;29;20075;-88
2023/10/02 11:41:47;;;;;;;23.23;11.75;;;22.20;99.90;;;;;;4950530;28;20126;-88
2023/10/02 11:44:13;;;;;;;26.45;12.43;;;22.10;99.90;;;;;;4917420;29;20518;-88
2023/10/02 11:46:51;;;;;;;28.70;13.10;;;22.00;99.90;;;;;;4935447;29;20139;-88
2023/10/02 11:49:17;;;;;;;24.45;12.98;;;22.00;99.90;;;;;;4917527;29;20044;-88
2023/10/02 11:51:44;;;;;;;22.98;10.93;;;21.90;99.90;;;;;;4911877;29;20151;-89
2023/10/02 11:54:41;;;;;;;20.95;11.63;;;22.00;99.90;;;;;;4916217;29;20428;-88
2023/10/02 11:57:08;;;;;;;22.67;12.52;;;21.90;99.90;;;;;;4899112;29;20067;-86
2023/10/02 11:59:50;;;;;;;24.58;11.20;;;22.00;99.90;;;;;;4899803;29;20389;-86
2023/10/02 12:02:19;;;;;;;22.77;10.65;;;22.00;99.90;;;;;;4932148;29;20107;-86
2023/10/02 12:04:57;;;;;;;21.73;10.57;;;22.20;99.90;;;;;;4918700;29;20057;-86
2023/10/02 12:07:23;;;;;;;21.08;10.65;;;22.20;99.90;;;;;;4903369;29;20055;-86
2023/10/02 12:10:01;;;;;;;21.63;10.45;;;22.20;99.90;;;;;;4899638;29;20045;-85
2023/10/02 12:12:27;;;;;;;21.35;10.82;;;22.20;99.90;;;;;;4900416;29;20056;-85
2023/10/02 12:14:54;;;;;;;22.90;10.27;;;22.10;99.90;;;;;;4884691;29;20052;-88
2023/10/02 12:21:12;;;;;;;23.17;11.40;;;22.40;99.90;;;;;;4900839;29;20528;-88
2023/10/02 12:23:43;;;;;;;24.63;11.43;;;22.70;99.90;;;;;;4915502;29;20115;-88
2023/10/02 12:26:22;;;;;;;21.55;11.00;;;22.90;99.90;;;;;;4900495;29;20493;-88
2023/10/02 12:28:49;;;;;;;22.63;10.80;;;22.90;99.90;;;;;;4915584;29;20079;-88
2023/10/02 12:31:24;;;;;;;24.25;11.55;;;23.00;99.90;;;;;;4900173;29;20120;-89
2023/10/02 12:33:53;;;;;;;22.35;11.25;;;23.00;99.90;;;;;;4884994;29;20080;-88
2023/10/02 12:36:27;;;;;;;23.38;11.75;;;23.30;99.90;;;;;;4915018;29;20053;-89
2023/10/02 12:38:53;;;;;;;26.13;11.55;;;23.40;99.90;;;;;;4883262;29;20044;-88
2023/10/02 12:41:23;;;;;;;22.77;11.85;;;23.60;99.90;;;;;;4883629;29;20120;-88
2023/10/02 12:43:56;;;;;;;22.05;11.77;;;23.60;99.90;;;;;;4918366;29;20471;-88
2023/10/02 12:46:30;;;;;;;24.02;10.65;;;23.70;99.90;;;;;;4883148;29;20096;-86
2023/10/02 12:49:02;;;;;;;;;;;23.70;99.90;;;;;;4915506;29;20048;-86
2023/10/02 12:51:54;;;;;;;23.70;11.57;;;23.80;99.90;;;;;;4901151;29;19927;-86
2023/10/02 12:54:48;;;;;;;23.20;11.88;;;23.70;99.90;;;;;;4882819;29;20056;-86
2023/10/02 12:57:23;;;;;;;23.67;11.55;;;23.70;99.90;;;;;;4883102;29;20510;-86
2023/10/02 13:00:13;;;;;;;22.70;10.88;;;23.60;99.90;;;;;;4899985;29;20044;-88
2023/10/02 13:02:41;;;;;;;22.90;10.77;;;23.70;99.90;;;;;;4884148;29;20053;-88
2023/10/02 13:08:00;;;;;;;21.63;10.65;;;23.70;99.90;;;;;;4938094;23;20052;-88
2023/10/02 13:10:39;;;;;;;22.63;10.27;;;23.60;99.90;;;;;;4920542;29;20052;-88
2023/10/02 13:13:05;;;;;;;26.02;10.73;;;23.40;99.90;;;;;;4921282;29;20047;-88
2023/10/02 13:15:37;;;;;;;20.67;10.23;;;23.30;99.90;;;;;;4935681;29;20083;-88
2023/10/02 13:18:03;;;;;;;22.33;10.55;;;23.00;99.90;;;;;;4952708;29;20052;-88
2023/10/02 13:20:28;;;;;;;21.83;9.88;;;22.90;99.90;;;;;;4920006;29;20057;-88
2023/10/02 13:23:04;;;;;;;20.33;9.95;;;22.80;99.90;;;;;;4937631;29;20046;-88
2023/10/02 13:25:42;;;;;;;22.30;10.18;;;22.70;99.90;;;;;;4920788;29;20122;-86
2023/10/02 13:28:24;;;;;;;21.10;10.40;;;22.60;99.90;;;;;;4920532;29;20392;-86
2023/10/02 13:31:12;;;;;;;22.20;10.07;;;22.50;99.90;;;;;;4921805;29;20051;-86
2023/10/02 13:33:51;;;;;;;21.10;9.05;;;22.40;99.90;;;;;;4938233;29;20048;-89
2023/10/02 13:36:25;;;;;;;16.70;8.57;;;22.60;99.90;;;;;;4920102;29;20047;-89
2023/10/02 13:38:57;;;;;;;19.48;8.95;;;22.50;99.90;;;;;;4937610;29;20052;-89
2023/10/02 13:41:25;;;;;;;20.02;9.27;;;22.60;99.90;;;;;;4920283;29;20134;-89
2023/10/02 13:43:58;;;;;;;17.05;8.30;;;22.60;99.90;;;;;;4936370;29;20054;-89
2023/10/02 13:46:27;;;;;;;18.45;8.60;;;22.60;99.90;;;;;;4920223;29;20480;-88
2023/10/02 13:49:05;;;;;;;19.13;8.10;;;22.60;99.90;;;;;;4920075;29;20077;-88
2023/10/02 13:51:37;;;;;;;21.42;9.02;;;22.60;99.90;;;;;;4935972;29;20173;-88
2023/10/02 13:54:31;;;;;;;18.15;8.70;;;22.60;99.90;;;;;;4951958;29;20495;-88
2023/10/02 13:56:56;;;;;;;20.40;8.43;;;22.60;99.90;;;;;;4919826;29;20086;-88
2023/10/02 13:59:22;;;;;;;20.38;8.05;;;22.70;99.90;;;;;;4920154;29;20452;-88
2023/10/02 14:01:48;;;;;;;19.08;8.57;;;22.70;99.90;;;;;;4920626;29;20565;-89
2023/10/02 14:04:14;;;;;;;16.65;8.43;;;23.10;99.90;;;;;;4958394;28;20043;-88
2023/10/02 14:06:46;;;;;;;19.92;8.88;;;22.70;99.90;;;;;;4936689;29;20059;-88
2023/10/02 14:09:13;;;;;;;18.70;8.38;;;22.90;99.90;;;;;;4923326;29;20380;-88
2023/10/02 14:11:40;;;;;;;18.88;8.60;;;23.00;99.90;;;;;;4938308;29;20399;-86
2023/10/02 14:14:06;;;;;;;18.20;8.82;;;23.00;99.90;;;;;;4939925;29;20059;-86
2023/10/02 14:16:33;;;;;;;18.67;9.02;;;23.20;99.90;;;;;;4922280;29;20051;-86
2023/10/02 14:19:00;;;;;;;18.65;8.32;;;23.20;99.90;;;;;;4919855;29;20078;-86
2023/10/02 14:21:26;;;;;;;20.60;9.35;;;23.20;99.90;;;;;;4920517;29;20107;-86
2023/10/02 14:23:55;;;;;;;20.38;9.82;;;23.20;99.90;;;;;;4919093;29;20055;-86
2023/10/02 14:26:24;;;;;;;20.42;9.50;;;23.10;99.90;;;;;;4950528;28;20039;-86
2023/10/02 14:28:53;;;;;;;22.55;9.88;;;23.00;99.90;;;;;;4919938;29;20052;-86